sensor_id;sensor_type;location;lat;lon;timestamp;P1;durP1;ratioP1;P2;durP2;ratioP2
912;SDS011;443;51.448;7.028;2022-12-07T00:01:20;9.20;;;7.87;;
912;SDS011;443;51.448;7.028;2022-12-07T00:03:50;8.50;;;7.57;;
912;SDS011;443;51.448;7.028;2022-12-07T00:06:19;9.40;;;7.87;;
912;SDS011;443;51.448;7.028;2022-12-07T00:08:46;8.53;;;7.67;;
912;SDS011;443;51.448;7.028;2022-12-07T00:11:14;8.53;;;7.53;;
912;SDS011;443;51.448;7.028;2022-12-07T00:13:42;14.83;;;8.67;;
912;SDS011;443;51.448;7.028;2022-12-07T00:16:10;9.27;;;8.33;;
912;SDS011;443;51.448;7.028;2022-12-07T00:18:38;8.60;;;6.73;;
912;SDS011;443;51.448;7.028;2022-12-07T00:21:08;9.13;;;7.50;;
912;SDS011;443;51.448;7.028;2022-12-07T00:23:37;9.07;;;8.10;;
912;SDS011;443;51.448;7.028;2022-12-07T00:26:04;9.67;;;8.63;;
912;SDS011;443;51.448;7.028;2022-12-07T00:28:31;8.80;;;7.90;;
912;SDS011;443;51.448;7.028;2022-12-07T00:31:00;11.07;;;9.32;;
912;SDS011;443;51.448;7.028;2022-12-07T00:33:28;10.60;;;9.50;;
912;SDS011;443;51.448;7.028;2022-12-07T00:35:55;10.63;;;9.53;;
912;SDS011;443;51.448;7.028;2022-12-07T00:38:23;17.80;;;9.70;;
912;SDS011;443;51.448;7.028;2022-12-07T00:40:54;13.80;;;11.10;;
912;SDS011;443;51.448;7.028;2022-12-07T00:43:22;9.20;;;7.87;;
912;SDS011;443;51.448;7.028;2022-12-07T00:45:49;12.10;;;9.40;;
912;SDS011;443;51.448;7.028;2022-12-07T00:48:15;12.40;;;9.30;;
912;SDS011;443;51.448;7.028;2022-12-07T00:50:42;11.33;;;9.30;;
912;SDS011;443;51.448;7.028;2022-12-07T00:53:09;11.03;;;9.40;;
912;SDS011;443;51.448;7.028;2022-12-07T00:55:37;13.50;;;11.10;;
912;SDS011;443;51.448;7.028;2022-12-07T00:58:04;15.40;;;10.73;;
912;SDS011;443;51.448;7.028;2022-12-07T01:00:31;10.90;;;9.80;;
912;SDS011;443;51.448;7.028;2022-12-07T01:02:58;10.23;;;9.13;;
912;SDS011;443;51.448;7.028;2022-12-07T01:05:25;13.07;;;10.50;;
912;SDS011;443;51.448;7.028;2022-12-07T01:07:52;13.17;;;11.70;;
912;SDS011;443;51.448;7.028;2022-12-07T01:10:19;12.97;;;11.17;;
912;SDS011;443;51.448;7.028;2022-12-07T01:12:47;15.30;;;10.50;;
912;SDS011;443;51.448;7.028;2022-12-07T01:15:13;14.93;;;12.60;;
912;SDS011;443;51.448;7.028;2022-12-07T01:17:40;13.47;;;10.50;;
912;SDS011;443;51.448;7.028;2022-12-07T01:20:07;15.27;;;10.57;;
912;SDS011;443;51.448;7.028;2022-12-07T01:22:36;13.53;;;10.40;;
912;SDS011;443;51.448;7.028;2022-12-07T01:25:03;13.93;;;10.80;;
912;SDS011;443;51.448;7.028;2022-12-07T01:27:31;15.07;;;11.90;;
912;SDS011;443;51.448;7.028;2022-12-07T01:30:00;16.93;;;11.67;;
912;SDS011;443;51.448;7.028;2022-12-07T01:32:27;15.10;;;11.47;;
912;SDS011;443;51.448;7.028;2022-12-07T01:34:54;16.60;;;12.67;;
912;SDS011;443;51.448;7.028;2022-12-07T01:37:21;16.90;;;12.77;;
912;SDS011;443;51.448;7.028;2022-12-07T01:39:48;15.53;;;12.43;;
912;SDS011;443;51.448;7.028;2022-12-07T01:42:15;16.47;;;11.50;;
912;SDS011;443;51.448;7.028;2022-12-07T01:47:50;15.98;;;12.32;;
912;SDS011;443;51.448;7.028;2022-12-07T01:50:21;17.20;;;12.13;;
912;SDS011;443;51.448;7.028;2022-12-07T01:52:50;16.93;;;12.63;;
912;SDS011;443;51.448;7.028;2022-12-07T01:55:19;14.20;;;12.20;;
912;SDS011;443;51.448;7.028;2022-12-07T01:57:47;17.80;;;13.10;;
912;SDS011;443;51.448;7.028;2022-12-07T02:00:16;16.10;;;12.53;;
912;SDS011;443;51.448;7.028;2022-12-07T02:02:45;13.83;;;12.33;;
912;SDS011;443;51.448;7.028;2022-12-07T02:05:17;15.40;;;12.20;;
912;SDS011;443;51.448;7.028;2022-12-07T02:07:45;17.40;;;12.70;;
912;SDS011;443;51.448;7.028;2022-12-07T02:10:14;17.30;;;13.70;;
912;SDS011;443;51.448;7.028;2022-12-07T02:12:42;15.20;;;11.73;;
912;SDS011;443;51.448;7.028;2022-12-07T02:15:11;18.20;;;13.07;;
912;SDS011;443;51.448;7.028;2022-12-07T02:17:40;16.17;;;13.32;;
912;SDS011;443;51.448;7.028;2022-12-07T02:20:22;18.10;;;13.53;;
912;SDS011;443;51.448;7.028;2022-12-07T02:23:14;24.37;;;15.47;;
912;SDS011;443;51.448;7.028;2022-12-07T02:26:13;19.73;;;14.27;;
912;SDS011;443;51.448;7.028;2022-12-07T02:29:10;22.70;;;15.77;;
912;SDS011;443;51.448;7.028;2022-12-07T02:31:43;19.80;;;15.00;;
912;SDS011;443;51.448;7.028;2022-12-07T02:34:14;18.07;;;12.27;;
912;SDS011;443;51.448;7.028;2022-12-07T02:36:50;20.30;;;13.80;;
912;SDS011;443;51.448;7.028;2022-12-07T02:39:20;20.10;;;15.03;;
912;SDS011;443;51.448;7.028;2022-12-07T02:41:54;16.23;;;13.30;;
912;SDS011;443;51.448;7.028;2022-12-07T02:44:27;19.40;;;15.27;;
912;SDS011;443;51.448;7.028;2022-12-07T02:46:57;22.00;;;15.47;;
912;SDS011;443;51.448;7.028;2022-12-07T02:49:27;21.07;;;15.27;;
912;SDS011;443;51.448;7.028;2022-12-07T02:51:55;17.33;;;12.70;;
912;SDS011;443;51.448;7.028;2022-12-07T02:54:22;19.47;;;14.13;;
912;SDS011;443;51.448;7.028;2022-12-07T02:56:49;17.30;;;11.93;;
912;SDS011;443;51.448;7.028;2022-12-07T02:59:23;17.33;;;11.33;;
912;SDS011;443;51.448;7.028;2022-12-07T03:02:04;16.13;;;11.30;;
912;SDS011;443;51.448;7.028;2022-12-07T03:04:45;17.03;;;11.93;;
912;SDS011;443;51.448;7.028;2022-12-07T03:07:25;12.10;;;9.70;;
912;SDS011;443;51.448;7.028;2022-12-07T03:09:59;15.40;;;10.23;;
912;SDS011;443;51.448;7.028;2022-12-07T03:12:35;15.50;;;11.07;;
912;SDS011;443;51.448;7.028;2022-12-07T03:15:12;16.40;;;12.07;;
912;SDS011;443;51.448;7.028;2022-12-07T03:17:42;12.83;;;10.67;;
912;SDS011;443;51.448;7.028;2022-12-07T03:20:11;12.90;;;10.17;;
912;SDS011;443;51.448;7.028;2022-12-07T03:22:39;20.30;;;10.70;;
912;SDS011;443;51.448;7.028;2022-12-07T03:25:10;14.67;;;11.40;;
912;SDS011;443;51.448;7.028;2022-12-07T03:27:41;15.67;;;11.53;;
912;SDS011;443;51.448;7.028;2022-12-07T03:30:16;14.10;;;10.97;;
912;SDS011;443;51.448;7.028;2022-12-07T03:32:45;14.90;;;11.73;;
912;SDS011;443;51.448;7.028;2022-12-07T03:35:17;13.90;;;10.80;;
912;SDS011;443;51.448;7.028;2022-12-07T03:37:49;15.87;;;10.93;;
912;SDS011;443;51.448;7.028;2022-12-07T03:40:19;16.70;;;12.47;;
912;SDS011;443;51.448;7.028;2022-12-07T03:45:43;17.00;;;12.20;;
912;SDS011;443;51.448;7.028;2022-12-07T03:48:16;18.33;;;12.60;;
912;SDS011;443;51.448;7.028;2022-12-07T03:50:49;17.10;;;11.60;;
912;SDS011;443;51.448;7.028;2022-12-07T03:53:22;18.33;;;11.03;;
912;SDS011;443;51.448;7.028;2022-12-07T03:55:55;20.63;;;13.23;;
912;SDS011;443;51.448;7.028;2022-12-07T03:58:24;16.27;;;10.73;;
912;SDS011;443;51.448;7.028;2022-12-07T04:00:53;15.57;;;11.50;;
912;SDS011;443;51.448;7.028;2022-12-07T04:03:21;13.23;;;11.70;;
912;SDS011;443;51.448;7.028;2022-12-07T04:05:47;17.73;;;11.10;;
912;SDS011;443;51.448;7.028;2022-12-07T04:08:14;14.03;;;10.60;;
912;SDS011;443;51.448;7.028;2022-12-07T04:10:41;18.13;;;11.70;;
912;SDS011;443;51.448;7.028;2022-12-07T04:13:08;16.70;;;10.07;;
912;SDS011;443;51.448;7.028;2022-12-07T04:15:34;15.70;;;11.27;;
912;SDS011;443;51.448;7.028;2022-12-07T04:18:03;17.65;;;11.18;;
912;SDS011;443;51.448;7.028;2022-12-07T04:20:29;13.07;;;11.23;;
912;SDS011;443;51.448;7.028;2022-12-07T04:22:56;15.10;;;10.17;;
912;SDS011;443;51.448;7.028;2022-12-07T04:25:23;13.03;;;10.07;;
912;SDS011;443;51.448;7.028;2022-12-07T04:27:49;16.30;;;10.10;;
912;SDS011;443;51.448;7.028;2022-12-07T04:30:16;12.50;;;8.40;;
912;SDS011;443;51.448;7.028;2022-12-07T04:32:43;14.73;;;9.67;;
912;SDS011;443;51.448;7.028;2022-12-07T04:35:11;12.00;;;9.07;;
912;SDS011;443;51.448;7.028;2022-12-07T04:37:38;12.70;;;9.00;;
912;SDS011;443;51.448;7.028;2022-12-07T04:40:05;11.30;;;8.30;;
912;SDS011;443;51.448;7.028;2022-12-07T04:42:35;12.17;;;7.80;;
912;SDS011;443;51.448;7.028;2022-12-07T04:45:02;13.10;;;8.93;;
912;SDS011;443;51.448;7.028;2022-12-07T04:47:29;12.73;;;8.57;;
912;SDS011;443;51.448;7.028;2022-12-07T04:49:56;10.93;;;8.23;;
912;SDS011;443;51.448;7.028;2022-12-07T04:52:24;9.30;;;8.07;;
912;SDS011;443;51.448;7.028;2022-12-07T04:54:50;9.80;;;7.17;;
912;SDS011;443;51.448;7.028;2022-12-07T04:57:17;11.97;;;8.27;;
912;SDS011;443;51.448;7.028;2022-12-07T04:59:44;9.90;;;7.80;;
912;SDS011;443;51.448;7.028;2022-12-07T05:02:11;13.37;;;8.27;;
912;SDS011;443;51.448;7.028;2022-12-07T05:04:37;9.97;;;8.10;;
912;SDS011;443;51.448;7.028;2022-12-07T05:07:04;11.27;;;8.43;;
912;SDS011;443;51.448;7.028;2022-12-07T05:09:32;11.83;;;8.30;;
912;SDS011;443;51.448;7.028;2022-12-07T05:11:59;10.35;;;9.07;;
912;SDS011;443;51.448;7.028;2022-12-07T05:14:25;9.83;;;7.37;;
912;SDS011;443;51.448;7.028;2022-12-07T05:16:52;10.70;;;8.13;;
912;SDS011;443;51.448;7.028;2022-12-07T05:19:19;9.68;;;7.95;;
912;SDS011;443;51.448;7.028;2022-12-07T05:21:46;8.23;;;7.03;;
912;SDS011;443;51.448;7.028;2022-12-07T05:24:13;11.80;;;8.50;;
912;SDS011;443;51.448;7.028;2022-12-07T05:26:43;11.50;;;8.67;;
912;SDS011;443;51.448;7.028;2022-12-07T05:29:11;12.77;;;8.70;;
912;SDS011;443;51.448;7.028;2022-12-07T05:31:38;10.60;;;8.67;;
912;SDS011;443;51.448;7.028;2022-12-07T05:34:05;13.10;;;8.30;;
912;SDS011;443;51.448;7.028;2022-12-07T05:36:32;12.80;;;8.87;;
912;SDS011;443;51.448;7.028;2022-12-07T05:38:59;10.50;;;8.70;;
912;SDS011;443;51.448;7.028;2022-12-07T05:41:25;14.50;;;8.37;;
912;SDS011;443;51.448;7.028;2022-12-07T05:44:11;15.47;;;9.07;;
912;SDS011;443;51.448;7.028;2022-12-07T05:46:38;11.93;;;7.70;;
912;SDS011;443;51.448;7.028;2022-12-07T05:49:05;10.53;;;7.57;;
912;SDS011;443;51.448;7.028;2022-12-07T05:51:32;12.77;;;6.53;;
912;SDS011;443;51.448;7.028;2022-12-07T05:53:58;13.20;;;8.33;;
912;SDS011;443;51.448;7.028;2022-12-07T05:56:25;10.00;;;6.90;;
912;SDS011;443;51.448;7.028;2022-12-07T05:58:52;9.50;;;7.30;;
912;SDS011;443;51.448;7.028;2022-12-07T06:01:38;9.63;;;6.97;;
912;SDS011;443;51.448;7.028;2022-12-07T06:04:05;10.87;;;6.63;;
912;SDS011;443;51.448;7.028;2022-12-07T06:06:32;10.70;;;7.00;;
912;SDS011;443;51.448;7.028;2022-12-07T06:08:58;12.33;;;6.90;;
912;SDS011;443;51.448;7.028;2022-12-07T06:11:25;8.80;;;7.13;;
912;SDS011;443;51.448;7.028;2022-12-07T06:14:10;7.90;;;6.40;;
912;SDS011;443;51.448;7.028;2022-12-07T06:16:36;9.23;;;5.73;;
912;SDS011;443;51.448;7.028;2022-12-07T06:19:04;7.93;;;6.97;;
912;SDS011;443;51.448;7.028;2022-12-07T06:21:31;8.17;;;5.83;;
912;SDS011;443;51.448;7.028;2022-12-07T06:23:58;5.90;;;5.10;;
912;SDS011;443;51.448;7.028;2022-12-07T06:26:25;10.60;;;6.83;;
912;SDS011;443;51.448;7.028;2022-12-07T06:28:51;14.27;;;7.57;;
912;SDS011;443;51.448;7.028;2022-12-07T06:31:18;13.03;;;7.80;;
912;SDS011;443;51.448;7.028;2022-12-07T06:33:46;7.30;;;5.25;;
912;SDS011;443;51.448;7.028;2022-12-07T06:36:13;12.43;;;6.63;;
912;SDS011;443;51.448;7.028;2022-12-07T06:38:40;10.47;;;6.53;;
912;SDS011;443;51.448;7.028;2022-12-07T06:41:07;9.37;;;6.43;;
912;SDS011;443;51.448;7.028;2022-12-07T06:43:33;10.03;;;6.30;;
912;SDS011;443;51.448;7.028;2022-12-07T06:46:00;10.15;;;6.88;;
912;SDS011;443;51.448;7.028;2022-12-07T06:48:27;10.43;;;7.40;;
912;SDS011;443;51.448;7.028;2022-12-07T06:50:55;9.70;;;6.70;;
912;SDS011;443;51.448;7.028;2022-12-07T06:53:22;9.50;;;6.30;;
912;SDS011;443;51.448;7.028;2022-12-07T06:55:49;9.37;;;6.63;;
912;SDS011;443;51.448;7.028;2022-12-07T06:58:16;7.07;;;5.70;;
912;SDS011;443;51.448;7.028;2022-12-07T07:00:43;11.25;;;6.70;;
912;SDS011;443;51.448;7.028;2022-12-07T07:03:10;11.80;;;5.60;;
912;SDS011;443;51.448;7.028;2022-12-07T07:05:37;8.70;;;6.00;;
912;SDS011;443;51.448;7.028;2022-12-07T07:08:05;11.97;;;6.20;;
912;SDS011;443;51.448;7.028;2022-12-07T07:10:32;6.93;;;5.00;;
912;SDS011;443;51.448;7.028;2022-12-07T07:12:58;10.43;;;5.70;;
912;SDS011;443;51.448;7.028;2022-12-07T07:15:25;9.13;;;6.70;;
912;SDS011;443;51.448;7.028;2022-12-07T07:17:52;7.67;;;5.77;;
912;SDS011;443;51.448;7.028;2022-12-07T07:20:19;7.23;;;5.80;;
912;SDS011;443;51.448;7.028;2022-12-07T07:22:46;8.77;;;6.87;;
912;SDS011;443;51.448;7.028;2022-12-07T07:25:14;10.90;;;6.57;;
912;SDS011;443;51.448;7.028;2022-12-07T07:27:41;7.00;;;6.33;;
912;SDS011;443;51.448;7.028;2022-12-07T07:30:08;9.10;;;6.00;;
912;SDS011;443;51.448;7.028;2022-12-07T07:32:36;9.93;;;6.87;;
912;SDS011;443;51.448;7.028;2022-12-07T07:35:03;6.73;;;5.90;;
912;SDS011;443;51.448;7.028;2022-12-07T07:37:30;8.77;;;5.97;;
912;SDS011;443;51.448;7.028;2022-12-07T07:39:57;8.73;;;5.80;;
912;SDS011;443;51.448;7.028;2022-12-07T07:42:25;9.50;;;5.97;;
912;SDS011;443;51.448;7.028;2022-12-07T07:44:52;7.73;;;6.17;;
912;SDS011;443;51.448;7.028;2022-12-07T07:47:19;6.60;;;4.93;;
912;SDS011;443;51.448;7.028;2022-12-07T07:49:45;15.40;;;7.23;;
912;SDS011;443;51.448;7.028;2022-12-07T07:52:12;12.40;;;6.00;;
912;SDS011;443;51.448;7.028;2022-12-07T07:54:39;8.27;;;6.37;;
912;SDS011;443;51.448;7.028;2022-12-07T07:57:06;6.50;;;4.60;;
912;SDS011;443;51.448;7.028;2022-12-07T07:59:34;7.57;;;6.23;;
912;SDS011;443;51.448;7.028;2022-12-07T08:02:00;6.93;;;6.00;;
912;SDS011;443;51.448;7.028;2022-12-07T08:04:27;6.80;;;5.83;;
912;SDS011;443;51.448;7.028;2022-12-07T08:06:54;8.77;;;5.70;;
912;SDS011;443;51.448;7.028;2022-12-07T08:09:21;8.02;;;6.60;;
912;SDS011;443;51.448;7.028;2022-12-07T08:11:47;12.50;;;5.80;;
912;SDS011;443;51.448;7.028;2022-12-07T08:14:14;9.07;;;5.80;;
912;SDS011;443;51.448;7.028;2022-12-07T08:16:42;6.80;;;5.00;;
912;SDS011;443;51.448;7.028;2022-12-07T08:19:09;7.37;;;6.13;;
912;SDS011;443;51.448;7.028;2022-12-07T08:21:36;6.80;;;5.30;;
912;SDS011;443;51.448;7.028;2022-12-07T08:24:04;9.53;;;6.10;;
912;SDS011;443;51.448;7.028;2022-12-07T08:26:31;7.13;;;5.47;;
912;SDS011;443;51.448;7.028;2022-12-07T08:28:58;8.03;;;5.70;;
912;SDS011;443;51.448;7.028;2022-12-07T08:31:25;7.33;;;5.90;;
912;SDS011;443;51.448;7.028;2022-12-07T08:33:54;8.00;;;6.30;;
912;SDS011;443;51.448;7.028;2022-12-07T08:36:22;7.70;;;5.73;;
912;SDS011;443;51.448;7.028;2022-12-07T08:38:48;6.37;;;5.73;;
912;SDS011;443;51.448;7.028;2022-12-07T08:41:15;9.20;;;6.23;;
912;SDS011;443;51.448;7.028;2022-12-07T08:43:43;9.20;;;6.53;;
912;SDS011;443;51.448;7.028;2022-12-07T08:46:10;8.07;;;5.60;;
912;SDS011;443;51.448;7.028;2022-12-07T08:48:41;11.00;;;6.20;;
912;SDS011;443;51.448;7.028;2022-12-07T08:51:13;5.40;;;4.90;;
912;SDS011;443;51.448;7.028;2022-12-07T08:53:40;6.77;;;5.30;;
912;SDS011;443;51.448;7.028;2022-12-07T08:56:08;8.67;;;6.70;;
912;SDS011;443;51.448;7.028;2022-12-07T08:58:35;6.30;;;5.50;;
912;SDS011;443;51.448;7.028;2022-12-07T09:01:04;7.82;;;5.10;;
912;SDS011;443;51.448;7.028;2022-12-07T09:03:31;6.43;;;4.90;;
912;SDS011;443;51.448;7.028;2022-12-07T09:05:58;7.82;;;5.88;;
912;SDS011;443;51.448;7.028;2022-12-07T09:08:26;6.85;;;4.55;;
912;SDS011;443;51.448;7.028;2022-12-07T09:10:57;7.53;;;5.28;;
912;SDS011;443;51.448;7.028;2022-12-07T09:13:24;8.13;;;6.03;;
912;SDS011;443;51.448;7.028;2022-12-07T09:15:50;7.63;;;5.78;;
912;SDS011;443;51.448;7.028;2022-12-07T09:18:17;5.57;;;5.03;;
912;SDS011;443;51.448;7.028;2022-12-07T09:20:44;7.28;;;5.43;;
912;SDS011;443;51.448;7.028;2022-12-07T09:23:11;7.00;;;5.60;;
912;SDS011;443;51.448;7.028;2022-12-07T09:25:39;13.33;;;5.97;;
912;SDS011;443;51.448;7.028;2022-12-07T09:28:06;7.33;;;6.30;;
912;SDS011;443;51.448;7.028;2022-12-07T09:30:32;6.82;;;5.07;;
912;SDS011;443;51.448;7.028;2022-12-07T09:32:59;11.90;;;6.30;;
912;SDS011;443;51.448;7.028;2022-12-07T09:35:26;8.17;;;5.57;;
912;SDS011;443;51.448;7.028;2022-12-07T09:37:53;7.77;;;5.40;;
912;SDS011;443;51.448;7.028;2022-12-07T09:40:20;7.17;;;5.87;;
912;SDS011;443;51.448;7.028;2022-12-07T09:42:51;7.30;;;5.30;;
912;SDS011;443;51.448;7.028;2022-12-07T09:45:21;10.13;;;6.33;;
912;SDS011;443;51.448;7.028;2022-12-07T09:47:50;10.40;;;5.17;;
912;SDS011;443;51.448;7.028;2022-12-07T09:50:19;10.90;;;6.10;;
912;SDS011;443;51.448;7.028;2022-12-07T09:52:47;10.87;;;6.40;;
912;SDS011;443;51.448;7.028;2022-12-07T09:55:16;9.23;;;5.90;;
912;SDS011;443;51.448;7.028;2022-12-07T09:57:47;8.50;;;5.13;;
912;SDS011;443;51.448;7.028;2022-12-07T10:00:18;11.90;;;6.10;;
912;SDS011;443;51.448;7.028;2022-12-07T10:02:47;9.23;;;5.23;;
912;SDS011;443;51.448;7.028;2022-12-07T10:05:18;8.03;;;5.30;;
912;SDS011;443;51.448;7.028;2022-12-07T10:07:48;9.70;;;6.10;;
912;SDS011;443;51.448;7.028;2022-12-07T10:10:15;8.82;;;4.72;;
912;SDS011;443;51.448;7.028;2022-12-07T10:12:52;9.10;;;5.70;;
912;SDS011;443;51.448;7.028;2022-12-07T10:15:22;6.80;;;5.03;;
912;SDS011;443;51.448;7.028;2022-12-07T10:17:49;8.87;;;4.90;;
912;SDS011;443;51.448;7.028;2022-12-07T10:20:22;9.47;;;5.37;;
912;SDS011;443;51.448;7.028;2022-12-07T10:22:55;10.53;;;5.00;;
912;SDS011;443;51.448;7.028;2022-12-07T10:25:28;6.23;;;4.27;;
912;SDS011;443;51.448;7.028;2022-12-07T10:27:59;6.67;;;5.57;;
912;SDS011;443;51.448;7.028;2022-12-07T10:30:47;6.27;;;5.00;;
912;SDS011;443;51.448;7.028;2022-12-07T10:33:27;7.70;;;4.80;;
912;SDS011;443;51.448;7.028;2022-12-07T10:35:55;11.90;;;4.90;;
912;SDS011;443;51.448;7.028;2022-12-07T10:38:23;5.73;;;4.40;;
912;SDS011;443;51.448;7.028;2022-12-07T10:41:02;7.27;;;4.27;;
912;SDS011;443;51.448;7.028;2022-12-07T10:43:30;7.23;;;3.80;;
912;SDS011;443;51.448;7.028;2022-12-07T10:49:03;8.90;;;4.60;;
912;SDS011;443;51.448;7.028;2022-12-07T10:51:43;6.37;;;4.80;;
912;SDS011;443;51.448;7.028;2022-12-07T10:54:18;9.37;;;4.90;;
912;SDS011;443;51.448;7.028;2022-12-07T10:56:58;6.17;;;3.77;;
912;SDS011;443;51.448;7.028;2022-12-07T10:59:42;5.93;;;4.17;;
912;SDS011;443;51.448;7.028;2022-12-07T11:02:26;5.43;;;3.20;;
912;SDS011;443;51.448;7.028;2022-12-07T11:05:13;7.20;;;4.07;;
912;SDS011;443;51.448;7.028;2022-12-07T11:07:50;8.40;;;4.83;;
912;SDS011;443;51.448;7.028;2022-12-07T11:10:26;8.47;;;4.20;;
912;SDS011;443;51.448;7.028;2022-12-07T11:13:10;5.63;;;4.37;;
912;SDS011;443;51.448;7.028;2022-12-07T11:15:53;6.10;;;4.22;;
912;SDS011;443;51.448;7.028;2022-12-07T11:18:29;4.30;;;3.90;;
912;SDS011;443;51.448;7.028;2022-12-07T11:21:06;9.70;;;4.50;;
912;SDS011;443;51.448;7.028;2022-12-07T11:23:40;3.92;;;3.50;;
912;SDS011;443;51.448;7.028;2022-12-07T11:26:15;7.07;;;4.90;;
912;SDS011;443;51.448;7.028;2022-12-07T11:28:56;8.57;;;3.90;;
912;SDS011;443;51.448;7.028;2022-12-07T11:31:33;6.07;;;4.23;;
912;SDS011;443;51.448;7.028;2022-12-07T11:34:05;7.28;;;4.00;;
912;SDS011;443;51.448;7.028;2022-12-07T11:36:43;10.27;;;5.07;;
912;SDS011;443;51.448;7.028;2022-12-07T11:39:15;4.20;;;3.77;;
912;SDS011;443;51.448;7.028;2022-12-07T11:41:47;9.83;;;5.07;;
912;SDS011;443;51.448;7.028;2022-12-07T11:44:22;10.45;;;4.40;;
912;SDS011;443;51.448;7.028;2022-12-07T11:46:54;10.30;;;5.30;;
912;SDS011;443;51.448;7.028;2022-12-07T11:49:27;9.77;;;5.83;;
912;SDS011;443;51.448;7.028;2022-12-07T11:52:04;4.45;;;4.05;;
912;SDS011;443;51.448;7.028;2022-12-07T11:54:36;6.73;;;3.77;;
912;SDS011;443;51.448;7.028;2022-12-07T11:57:09;15.67;;;5.13;;
912;SDS011;443;51.448;7.028;2022-12-07T11:59:42;10.70;;;4.03;;
912;SDS011;443;51.448;7.028;2022-12-07T12:02:15;8.00;;;5.47;;
912;SDS011;443;51.448;7.028;2022-12-07T12:04:47;5.50;;;4.43;;
912;SDS011;443;51.448;7.028;2022-12-07T12:07:21;5.67;;;4.07;;
912;SDS011;443;51.448;7.028;2022-12-07T12:09:51;7.20;;;3.23;;
912;SDS011;443;51.448;7.028;2022-12-07T12:12:23;5.17;;;3.77;;
912;SDS011;443;51.448;7.028;2022-12-07T12:15:15;5.83;;;3.33;;
912;SDS011;443;51.448;7.028;2022-12-07T12:20:51;7.67;;;3.40;;
912;SDS011;443;51.448;7.028;2022-12-07T12:23:23;8.53;;;4.03;;
912;SDS011;443;51.448;7.028;2022-12-07T12:25:58;5.07;;;4.07;;
912;SDS011;443;51.448;7.028;2022-12-07T12:28:29;5.50;;;3.13;;
912;SDS011;443;51.448;7.028;2022-12-07T12:31:05;6.33;;;3.40;;
912;SDS011;443;51.448;7.028;2022-12-07T12:33:35;8.03;;;4.10;;
912;SDS011;443;51.448;7.028;2022-12-07T12:36:19;5.33;;;2.80;;
912;SDS011;443;51.448;7.028;2022-12-07T12:38:51;7.33;;;2.87;;
912;SDS011;443;51.448;7.028;2022-12-07T12:41:51;8.43;;;3.28;;
912;SDS011;443;51.448;7.028;2022-12-07T12:44:41;5.00;;;3.23;;
912;SDS011;443;51.448;7.028;2022-12-07T12:47:43;3.87;;;3.00;;
912;SDS011;443;51.448;7.028;2022-12-07T12:50:21;4.53;;;2.87;;
912;SDS011;443;51.448;7.028;2022-12-07T12:52:51;4.50;;;2.97;;
912;SDS011;443;51.448;7.028;2022-12-07T12:55:24;3.63;;;3.00;;
912;SDS011;443;51.448;7.028;2022-12-07T13:04:27;6.57;;;2.47;;
912;SDS011;443;51.448;7.028;2022-12-07T13:07:02;6.07;;;3.60;;
912;SDS011;443;51.448;7.028;2022-12-07T13:09:29;7.67;;;3.67;;
912;SDS011;443;51.448;7.028;2022-12-07T13:12:01;5.43;;;2.60;;
912;SDS011;443;51.448;7.028;2022-12-07T13:14:41;7.60;;;4.50;;
912;SDS011;443;51.448;7.028;2022-12-07T13:23:31;4.10;;;3.00;;
912;SDS011;443;51.448;7.028;2022-12-07T13:26:04;6.73;;;3.17;;
912;SDS011;443;51.448;7.028;2022-12-07T13:28:45;6.93;;;3.30;;
912;SDS011;443;51.448;7.028;2022-12-07T13:34:00;7.50;;;2.97;;
912;SDS011;443;51.448;7.028;2022-12-07T13:36:28;8.10;;;3.20;;
912;SDS011;443;51.448;7.028;2022-12-07T13:39:09;7.17;;;2.60;;
912;SDS011;443;51.448;7.028;2022-12-07T13:41:42;6.20;;;3.27;;
912;SDS011;443;51.448;7.028;2022-12-07T13:44:12;5.30;;;3.05;;
912;SDS011;443;51.448;7.028;2022-12-07T13:46:42;3.70;;;3.07;;
912;SDS011;443;51.448;7.028;2022-12-07T13:49:17;5.30;;;2.70;;
912;SDS011;443;51.448;7.028;2022-12-07T13:51:47;8.33;;;2.93;;
912;SDS011;443;51.448;7.028;2022-12-07T13:54:14;3.03;;;2.00;;
912;SDS011;443;51.448;7.028;2022-12-07T13:56:41;3.17;;;2.47;;
912;SDS011;443;51.448;7.028;2022-12-07T13:59:12;7.13;;;3.10;;
912;SDS011;443;51.448;7.028;2022-12-07T14:01:42;4.93;;;2.93;;
912;SDS011;443;51.448;7.028;2022-12-07T14:07:00;9.53;;;2.70;;
912;SDS011;443;51.448;7.028;2022-12-07T14:09:52;4.63;;;2.70;;
912;SDS011;443;51.448;7.028;2022-12-07T14:12:20;5.78;;;2.88;;
912;SDS011;443;51.448;7.028;2022-12-07T14:14:48;9.07;;;2.90;;
912;SDS011;443;51.448;7.028;2022-12-07T14:17:16;6.37;;;2.80;;
912;SDS011;443;51.448;7.028;2022-12-07T14:19:46;8.60;;;3.63;;
912;SDS011;443;51.448;7.028;2022-12-07T14:22:19;3.07;;;2.50;;
912;SDS011;443;51.448;7.028;2022-12-07T14:24:57;6.30;;;2.67;;
912;SDS011;443;51.448;7.028;2022-12-07T14:27:30;3.70;;;2.70;;
912;SDS011;443;51.448;7.028;2022-12-07T14:30:01;9.53;;;3.60;;
912;SDS011;443;51.448;7.028;2022-12-07T14:32:29;6.03;;;2.73;;
912;SDS011;443;51.448;7.028;2022-12-07T14:34:57;8.03;;;2.40;;
912;SDS011;443;51.448;7.028;2022-12-07T14:37:27;5.83;;;3.03;;
912;SDS011;443;51.448;7.028;2022-12-07T14:39:55;5.60;;;2.60;;
912;SDS011;443;51.448;7.028;2022-12-07T14:42:23;5.83;;;2.07;;
912;SDS011;443;51.448;7.028;2022-12-07T14:44:52;3.67;;;2.37;;
912;SDS011;443;51.448;7.028;2022-12-07T14:47:20;3.73;;;2.40;;
912;SDS011;443;51.448;7.028;2022-12-07T14:49:47;3.20;;;2.87;;
912;SDS011;443;51.448;7.028;2022-12-07T14:52:15;8.47;;;2.43;;
912;SDS011;443;51.448;7.028;2022-12-07T14:54:45;4.90;;;2.63;;
912;SDS011;443;51.448;7.028;2022-12-07T14:57:12;6.43;;;2.93;;
912;SDS011;443;51.448;7.028;2022-12-07T14:59:38;3.50;;;2.30;;
912;SDS011;443;51.448;7.028;2022-12-07T15:02:06;3.33;;;2.00;;
912;SDS011;443;51.448;7.028;2022-12-07T15:04:34;4.50;;;3.00;;
912;SDS011;443;51.448;7.028;2022-12-07T15:07:02;6.67;;;2.90;;
912;SDS011;443;51.448;7.028;2022-12-07T15:09:30;3.07;;;2.23;;
912;SDS011;443;51.448;7.028;2022-12-07T15:11:56;4.50;;;2.43;;
912;SDS011;443;51.448;7.028;2022-12-07T15:14:23;3.23;;;2.20;;
912;SDS011;443;51.448;7.028;2022-12-07T15:16:50;5.10;;;2.67;;
912;SDS011;443;51.448;7.028;2022-12-07T15:19:17;2.50;;;2.13;;
912;SDS011;443;51.448;7.028;2022-12-07T15:21:49;3.80;;;2.30;;
912;SDS011;443;51.448;7.028;2022-12-07T15:24:15;6.00;;;2.63;;
912;SDS011;443;51.448;7.028;2022-12-07T15:26:42;4.40;;;2.40;;
912;SDS011;443;51.448;7.028;2022-12-07T15:29:09;3.97;;;2.47;;
912;SDS011;443;51.448;7.028;2022-12-07T15:31:36;4.07;;;2.33;;
912;SDS011;443;51.448;7.028;2022-12-07T15:34:04;5.07;;;2.70;;
912;SDS011;443;51.448;7.028;2022-12-07T15:36:31;4.30;;;2.43;;
912;SDS011;443;51.448;7.028;2022-12-07T15:39:00;3.93;;;2.67;;
912;SDS011;443;51.448;7.028;2022-12-07T15:41:27;3.20;;;2.30;;
912;SDS011;443;51.448;7.028;2022-12-07T15:43:54;8.40;;;1.97;;
912;SDS011;443;51.448;7.028;2022-12-07T15:46:39;3.00;;;2.23;;
912;SDS011;443;51.448;7.028;2022-12-07T15:49:08;2.60;;;2.30;;
912;SDS011;443;51.448;7.028;2022-12-07T15:51:37;5.40;;;2.63;;
912;SDS011;443;51.448;7.028;2022-12-07T15:54:05;5.27;;;2.47;;
912;SDS011;443;51.448;7.028;2022-12-07T15:56:32;13.13;;;2.60;;
912;SDS011;443;51.448;7.028;2022-12-07T15:58:59;5.30;;;2.80;;
912;SDS011;443;51.448;7.028;2022-12-07T16:01:26;3.77;;;2.17;;
912;SDS011;443;51.448;7.028;2022-12-07T16:03:52;6.50;;;2.97;;
912;SDS011;443;51.448;7.028;2022-12-07T16:06:19;4.50;;;2.80;;
912;SDS011;443;51.448;7.028;2022-12-07T16:08:46;4.33;;;2.47;;
912;SDS011;443;51.448;7.028;2022-12-07T16:11:15;5.37;;;2.83;;
912;SDS011;443;51.448;7.028;2022-12-07T16:13:41;4.90;;;2.20;;
912;SDS011;443;51.448;7.028;2022-12-07T16:16:09;2.63;;;2.03;;
912;SDS011;443;51.448;7.028;2022-12-07T16:18:38;4.50;;;2.40;;
912;SDS011;443;51.448;7.028;2022-12-07T16:21:05;9.83;;;2.63;;
912;SDS011;443;51.448;7.028;2022-12-07T16:23:32;5.23;;;2.77;;